Estacao, Brazil
Current Conditions -  °F | °C
As of 7:00 AM on Thursday 27 Nov 2014 (Local Time) from SBPF Reporting Station
Few Clouds Few Clouds  
Wind Chill: 63°   Ceiling: Unl
Heat Index: 63°   Visibility: 6mi
Dew Point: 61°   Wind: 6mph
Humidity: 94%   Direction: 160°SSE
Pressure: 29.97"   Gusts: NA
Location:  27.91°S, 52.26°W
Report Text: SBPF 270900Z 16005KT 9000 FEW003 17/16 Q1015
Loading
Personal Weather Stations






























Interactive Weather Map New forecast layout! Learn more

10-Day Weather Forecast

Advertisements
Track Severe Weather on mobile